UAL155 PTKK-PTPN
Flight info
| Callsign | UAL155 |
|---|---|
| Flight time | N/A |
| Altitude | 33000 |
| Route | MICNO R584 BIRUQ |
| Aircraft | B738/M-SDE2E3FGHIRWXY/LB1 |
Departure
| Time | 2026-04-28 11:19 |
|---|---|
| Airport | Chuuk International Airport (PTKK) |
Arrival
| Time | N/A |
|---|---|
| Airport | Pohnpei International Airport (PTPN) |
| Time | Latitude | Longitude | Altitude | Speed | Heading |
|---|---|---|---|---|---|
| 2026-04-28 10:51 | 7.45833 | 151.84144 | 18 ft | 0 kts | 227° |
| 2026-04-28 11:16 | 7.45830 | 151.84141 | 18 ft | 3 kts | 230° |
| 2026-04-28 11:16 | 7.45837 | 151.84093 | 18 ft | 12 kts | 310° |
| 2026-04-28 11:17 | 7.45899 | 151.84018 | 22 ft | 15 kts | 281° |
| 2026-04-28 11:17 | 7.45832 | 151.83921 | 20 ft | 20 kts | 226° |
| 2026-04-28 11:17 | 7.45726 | 151.83812 | 19 ft | 18 kts | 226° |
| 2026-04-28 11:17 | 7.45651 | 151.83760 | 17 ft | 15 kts | 186° |
| 2026-04-28 11:18 | 7.45625 | 151.83714 | 17 ft | 7 kts | 349° |
| 2026-04-28 11:18 | 7.45646 | 151.83730 | 17 ft | 0 kts | 45° |
| 2026-04-28 11:19 | 7.45759 | 151.83846 | 18 ft | 68 kts | 46° |
| 2026-04-28 11:19 | 7.46304 | 151.84414 | 17 ft | 155 kts | 45° |
| 2026-04-28 11:19 | 7.47144 | 151.85273 | 688 ft | 179 kts | 44° |
| 2026-04-28 11:19 | 7.48032 | 151.86169 | 1777 ft | 190 kts | 44° |
| 2026-04-28 11:20 | 7.48949 | 151.87125 | 2784 ft | 188 kts | 50° |
| 2026-04-28 11:20 | 7.49323 | 151.88359 | 3629 ft | 197 kts | 94° |
| 2026-04-28 11:20 | 7.49074 | 151.89793 | 3918 ft | 219 kts | 97° |
| 2026-04-28 11:20 | 7.48839 | 151.91368 | 4317 ft | 232 kts | 96° |
| 2026-04-28 11:21 | 7.48598 | 151.93047 | 4620 ft | 252 kts | 97° |
| 2026-04-28 11:21 | 7.48341 | 151.94832 | 5279 ft | 260 kts | 97° |
| 2026-04-28 11:21 | 7.48079 | 151.96635 | 6230 ft | 260 kts | 97° |
| 2026-04-28 11:21 | 7.47815 | 151.98440 | 7061 ft | 262 kts | 97° |
| 2026-04-28 11:22 | 7.47545 | 152.00279 | 7762 ft | 268 kts | 97° |
| 2026-04-28 11:22 | 7.47270 | 152.02154 | 8456 ft | 273 kts | 97° |
| 2026-04-28 11:22 | 7.46993 | 152.04036 | 9232 ft | 276 kts | 97° |
| 2026-04-28 11:22 | 7.46709 | 152.05961 | 9975 ft | 280 kts | 98° |
| 2026-04-28 11:23 | 7.46414 | 152.07961 | 10339 ft | 300 kts | 98° |
| 2026-04-28 11:23 | 7.46095 | 152.10123 | 10496 ft | 324 kts | 98° |
| 2026-04-28 11:23 | 7.45755 | 152.12424 | 10862 ft | 338 kts | 98° |
| 2026-04-28 11:23 | 7.45405 | 152.14791 | 11433 ft | 345 kts | 98° |
| 2026-04-28 11:24 | 7.45048 | 152.17198 | 12082 ft | 349 kts | 98° |
| 2026-04-28 11:24 | 7.44688 | 152.19633 | 12746 ft | 353 kts | 98° |
| 2026-04-28 11:24 | 7.44323 | 152.22099 | 13417 ft | 358 kts | 98° |
| 2026-04-28 11:24 | 7.43954 | 152.24588 | 14110 ft | 361 kts | 98° |
| 2026-04-28 11:25 | 7.43581 | 152.27109 | 14773 ft | 366 kts | 98° |
| 2026-04-28 11:25 | 7.43202 | 152.29661 | 15427 ft | 371 kts | 98° |
| 2026-04-28 11:25 | 7.42818 | 152.32251 | 16051 ft | 376 kts | 98° |
| 2026-04-28 11:25 | 7.42446 | 152.34869 | 16674 ft | 380 kts | 97° |
| 2026-04-28 11:26 | 7.42189 | 152.37535 | 17276 ft | 384 kts | 95° |
| 2026-04-28 11:26 | 7.42000 | 152.40233 | 17867 ft | 388 kts | 94° |
| 2026-04-28 11:26 | 7.41832 | 152.42965 | 18444 ft | 392 kts | 94° |
| 2026-04-28 11:26 | 7.41667 | 152.45687 | 19008 ft | 395 kts | 94° |
| 2026-04-28 11:27 | 7.41495 | 152.48460 | 19561 ft | 399 kts | 94° |
| 2026-04-28 11:27 | 7.41314 | 152.51261 | 20078 ft | 402 kts | 94° |
| 2026-04-28 11:27 | 7.41127 | 152.54086 | 20612 ft | 405 kts | 94° |
| 2026-04-28 11:27 | 7.40934 | 152.56927 | 21127 ft | 408 kts | 94° |
| 2026-04-28 11:28 | 7.40737 | 152.59789 | 21630 ft | 410 kts | 94° |
| 2026-04-28 11:28 | 7.40538 | 152.62665 | 22109 ft | 413 kts | 94° |
| 2026-04-28 11:28 | 7.40335 | 152.65563 | 22559 ft | 416 kts | 94° |
| 2026-04-28 11:28 | 7.40131 | 152.68488 | 23012 ft | 419 kts | 94° |
| 2026-04-28 11:29 | 7.39926 | 152.71423 | 23438 ft | 422 kts | 94° |
| 2026-04-28 11:29 | 7.39719 | 152.74380 | 23837 ft | 425 kts | 94° |
| 2026-04-28 11:29 | 7.39511 | 152.77351 | 24251 ft | 427 kts | 94° |
| 2026-04-28 11:29 | 7.39301 | 152.80345 | 24642 ft | 429 kts | 94° |
| 2026-04-28 11:30 | 7.39090 | 152.83355 | 25019 ft | 432 kts | 94° |
| 2026-04-28 11:30 | 7.38664 | 152.89419 | 25752 ft | 436 kts | 94° |
| 2026-04-28 11:30 | 7.38448 | 152.92480 | 26102 ft | 439 kts | 94° |
| 2026-04-28 11:31 | 7.38232 | 152.95553 | 26446 ft | 441 kts | 94° |
| 2026-04-28 11:31 | 7.38014 | 152.98643 | 26787 ft | 443 kts | 94° |
| 2026-04-28 11:31 | 7.37795 | 153.01750 | 27120 ft | 446 kts | 94° |
| 2026-04-28 11:31 | 7.37574 | 153.04874 | 27461 ft | 447 kts | 94° |
| 2026-04-28 11:32 | 7.37355 | 153.07964 | 27779 ft | 449 kts | 94° |
| 2026-04-28 11:32 | 7.37133 | 153.11108 | 28083 ft | 451 kts | 94° |
| 2026-04-28 11:32 | 7.36909 | 153.14268 | 28373 ft | 453 kts | 94° |
| 2026-04-28 11:32 | 7.36684 | 153.17444 | 28659 ft | 455 kts | 94° |
| 2026-04-28 11:33 | 7.36458 | 153.20627 | 28978 ft | 456 kts | 94° |
| 2026-04-28 11:33 | 7.36231 | 153.23812 | 29383 ft | 455 kts | 94° |
| 2026-04-28 11:33 | 7.36006 | 153.26983 | 29838 ft | 453 kts | 94° |
| 2026-04-28 11:33 | 7.35781 | 153.30139 | 30275 ft | 451 kts | 94° |
| 2026-04-28 11:34 | 7.35556 | 153.33289 | 30664 ft | 451 kts | 94° |
| 2026-04-28 11:34 | 7.35331 | 153.36444 | 31097 ft | 449 kts | 94° |
| 2026-04-28 11:34 | 7.35108 | 153.39568 | 31565 ft | 447 kts | 94° |
| 2026-04-28 11:34 | 7.34885 | 153.42687 | 31990 ft | 445 kts | 94° |
| 2026-04-28 11:35 | 7.34663 | 153.45798 | 32396 ft | 444 kts | 94° |
| 2026-04-28 11:35 | 7.34441 | 153.48895 | 32816 ft | 443 kts | 94° |
| 2026-04-28 11:35 | 7.33998 | 153.55075 | 32905 ft | 441 kts | 94° |
| 2026-04-28 11:36 | 7.33555 | 153.61241 | 32912 ft | 442 kts | 94° |
| 2026-04-28 11:36 | 7.33111 | 153.67388 | 32916 ft | 444 kts | 94° |
| 2026-04-28 11:37 | 7.32663 | 153.73600 | 32910 ft | 445 kts | 94° |
| 2026-04-28 11:37 | 7.32214 | 153.79813 | 32906 ft | 445 kts | 94° |
| 2026-04-28 11:38 | 7.31764 | 153.86034 | 32905 ft | 445 kts | 94° |
| 2026-04-28 11:38 | 7.31313 | 153.92249 | 32904 ft | 444 kts | 94° |
| 2026-04-28 11:39 | 7.30863 | 153.98447 | 32908 ft | 443 kts | 95° |
| 2026-04-28 11:39 | 7.30412 | 154.04632 | 32910 ft | 442 kts | 94° |
| 2026-04-28 11:40 | 7.29962 | 154.10800 | 32915 ft | 441 kts | 94° |
| 2026-04-28 11:40 | 7.29515 | 154.16916 | 32916 ft | 440 kts | 94° |
| 2026-04-28 11:41 | 7.29064 | 154.23066 | 32916 ft | 440 kts | 94° |
| 2026-04-28 11:41 | 7.28613 | 154.29215 | 32916 ft | 440 kts | 94° |
| 2026-04-28 11:42 | 7.28161 | 154.35361 | 32919 ft | 440 kts | 94° |
| 2026-04-28 11:42 | 7.27709 | 154.41506 | 32916 ft | 440 kts | 94° |
| 2026-04-28 11:43 | 7.27255 | 154.47651 | 32917 ft | 440 kts | 94° |
| 2026-04-28 11:43 | 7.26801 | 154.53799 | 32915 ft | 440 kts | 94° |
| 2026-04-28 11:44 | 7.26348 | 154.59907 | 32915 ft | 440 kts | 94° |
| 2026-04-28 11:44 | 7.25892 | 154.66056 | 32925 ft | 440 kts | 94° |
| 2026-04-28 11:45 | 7.25435 | 154.72206 | 32926 ft | 440 kts | 94° |
| 2026-04-28 11:45 | 7.24977 | 154.78352 | 32925 ft | 440 kts | 94° |
| 2026-04-28 11:46 | 7.24518 | 154.84497 | 32926 ft | 440 kts | 94° |
| 2026-04-28 11:46 | 7.24059 | 154.90644 | 32926 ft | 439 kts | 94° |
| 2026-04-28 11:47 | 7.23603 | 154.96743 | 32925 ft | 439 kts | 94° |
| 2026-04-28 11:47 | 7.23143 | 155.02878 | 32926 ft | 439 kts | 94° |
| 2026-04-28 11:48 | 7.22682 | 155.09011 | 32930 ft | 439 kts | 94° |
| 2026-04-28 11:48 | 7.22220 | 155.15138 | 32923 ft | 439 kts | 94° |
| 2026-04-28 11:49 | 7.21759 | 155.21264 | 32934 ft | 438 kts | 94° |
| 2026-04-28 11:49 | 7.21296 | 155.27379 | 32934 ft | 438 kts | 94° |
| 2026-04-28 11:50 | 7.20833 | 155.33498 | 32938 ft | 438 kts | 94° |
| 2026-04-28 11:50 | 7.20370 | 155.39608 | 32940 ft | 438 kts | 94° |
| 2026-04-28 11:51 | 7.19909 | 155.45686 | 32930 ft | 438 kts | 94° |
| 2026-04-28 11:51 | 7.19443 | 155.51805 | 32936 ft | 438 kts | 94° |
| 2026-04-28 11:52 | 7.18977 | 155.57919 | 32937 ft | 437 kts | 94° |
| 2026-04-28 11:52 | 7.18510 | 155.64027 | 32934 ft | 437 kts | 94° |
| 2026-04-28 11:53 | 7.18043 | 155.70131 | 32935 ft | 437 kts | 94° |
| 2026-04-28 11:53 | 7.17576 | 155.76231 | 32934 ft | 437 kts | 94° |
| 2026-04-28 11:54 | 7.17107 | 155.82328 | 32938 ft | 436 kts | 94° |
| 2026-04-28 11:54 | 7.16639 | 155.88422 | 32946 ft | 436 kts | 94° |